createdAt,value
2022-11-13T00:01:08.070Z,10.20
2022-11-13T00:03:53.665Z,9.40
2022-11-13T00:06:39.109Z,11.07
2022-11-13T00:09:24.832Z,12.10
2022-11-13T00:12:11.864Z,10.30
2022-11-13T00:14:57.342Z,10.73
2022-11-13T00:17:42.892Z,11.27
2022-11-13T00:20:28.528Z,10.00
2022-11-13T00:23:13.995Z,11.27
2022-11-13T00:26:03.743Z,10.53
2022-11-13T00:28:53.793Z,10.50
2022-11-13T00:31:39.481Z,10.40
2022-11-13T00:37:30.958Z,11.10
2022-11-13T00:40:16.958Z,11.50
2022-11-13T00:43:02.499Z,11.37
2022-11-13T00:45:49.330Z,9.43
2022-11-13T00:48:34.710Z,10.53
2022-11-13T00:51:20.234Z,12.00
2022-11-13T00:54:05.833Z,9.73
2022-11-13T00:56:51.331Z,10.50
2022-11-13T00:59:36.972Z,10.03
2022-11-13T01:02:23.773Z,10.27
2022-11-13T01:05:09.355Z,10.03
2022-11-13T01:07:54.954Z,10.53
2022-11-13T01:10:42.324Z,10.67
2022-11-13T01:13:28.132Z,11.07
2022-11-13T01:16:14.412Z,10.93
2022-11-13T01:19:01.766Z,9.80
2022-11-13T01:21:47.455Z,9.73
2022-11-13T01:24:33.188Z,10.13
2022-11-13T01:27:18.823Z,9.93
2022-11-13T01:30:04.832Z,9.60
2022-11-13T01:32:50.679Z,9.67
2022-11-13T01:35:37.707Z,10.07
2022-11-13T01:38:23.376Z,9.97
2022-11-13T01:41:13.268Z,10.40
2022-11-13T01:43:59.180Z,9.50
2022-11-13T01:46:46.075Z,10.37
2022-11-13T01:49:33.549Z,10.30
2022-11-13T01:52:21.696Z,9.70
2022-11-13T01:55:10.298Z,10.43
2022-11-13T01:57:55.978Z,9.23
2022-11-13T02:00:41.655Z,10.93
2022-11-13T02:03:27.410Z,9.73
2022-11-13T02:06:13.613Z,10.40
2022-11-13T02:09:00.715Z,9.50
2022-11-13T02:11:46.658Z,9.27
2022-11-13T02:14:32.472Z,10.07
2022-11-13T02:17:20.414Z,8.60
2022-11-13T02:20:06.728Z,9.67
2022-11-13T02:22:56.108Z,9.73
2022-11-13T02:25:44.265Z,10.20
2022-11-13T02:28:30.544Z,9.53
2022-11-13T02:31:16.820Z,9.40
2022-11-13T02:34:02.665Z,9.83
2022-11-13T02:36:48.770Z,9.80
2022-11-13T02:39:34.749Z,10.40
2022-11-13T02:42:21.655Z,9.60
2022-11-13T02:45:08.075Z,9.37
2022-11-13T02:47:53.915Z,9.90
2022-11-13T02:50:39.801Z,9.83
2022-11-13T02:53:25.652Z,8.80
2022-11-13T02:56:11.261Z,9.77
2022-11-13T02:58:58.119Z,10.33
2022-11-13T03:01:43.711Z,10.90
2022-11-13T03:04:50.210Z,10.03
2022-11-13T03:07:34.862Z,11.17
2022-11-13T03:10:20.710Z,9.50
2022-11-13T03:13:06.490Z,10.63
2022-11-13T03:15:53.572Z,12.03
2022-11-13T03:18:39.167Z,10.40
2022-11-13T03:21:24.737Z,12.10
2022-11-13T03:24:10.470Z,10.30
2022-11-13T03:26:56.557Z,10.70
2022-11-13T03:29:42.214Z,9.80
2022-11-13T03:32:29.245Z,9.03
2022-11-13T03:35:15.136Z,8.73
2022-11-13T03:38:00.629Z,10.20
2022-11-13T03:40:46.394Z,8.40
2022-11-13T03:43:32.067Z,8.77
2022-11-13T03:46:17.669Z,8.57
2022-11-13T03:49:04.699Z,8.90
2022-11-13T03:51:50.493Z,9.40
2022-11-13T03:54:36.132Z,10.60
2022-11-13T03:57:21.702Z,9.37
2022-11-13T04:00:07.792Z,8.93
2022-11-13T04:02:53.412Z,8.80
2022-11-13T04:05:40.332Z,8.90
2022-11-13T04:08:26.700Z,9.50
2022-11-13T04:11:13.152Z,9.80
2022-11-13T04:13:58.763Z,9.00
2022-11-13T04:16:44.331Z,9.30
2022-11-13T04:19:29.830Z,8.50
2022-11-13T04:22:16.706Z,9.30
2022-11-13T04:25:02.476Z,9.60
2022-11-13T04:27:49.376Z,10.20
2022-11-13T04:30:34.968Z,9.97
2022-11-13T04:33:20.509Z,9.23
2022-11-13T04:36:06.408Z,9.40
2022-11-13T04:38:53.457Z,10.10
2022-11-13T04:41:38.985Z,10.83
2022-11-13T04:44:24.473Z,9.23
2022-11-13T04:47:10.368Z,8.73
2022-11-13T04:49:56.070Z,8.00
2022-11-13T04:52:41.954Z,9.33
2022-11-13T04:55:29.089Z,9.20
2022-11-13T04:58:14.661Z,9.10
2022-11-13T05:01:00.146Z,8.83
2022-11-13T05:03:45.622Z,8.77
2022-11-13T05:06:31.181Z,8.43
2022-11-13T05:09:16.836Z,9.20
2022-11-13T05:12:03.771Z,9.03
2022-11-13T05:14:49.615Z,8.73
2022-11-13T05:17:35.064Z,9.37
2022-11-13T05:20:20.819Z,8.83
2022-11-13T05:23:06.543Z,7.47
2022-11-13T05:25:52.447Z,7.67
2022-11-13T05:28:39.766Z,7.57
2022-11-13T05:31:26.338Z,8.20
2022-11-13T05:34:12.557Z,8.13
2022-11-13T05:36:58.168Z,7.23
2022-11-13T05:39:43.685Z,7.47
2022-11-13T05:42:29.253Z,7.00
2022-11-13T05:45:16.260Z,7.10
2022-11-13T05:48:01.922Z,7.30
2022-11-13T05:50:47.446Z,7.50
2022-11-13T05:53:33.287Z,6.10
2022-11-13T05:56:20.038Z,6.20
2022-11-13T05:59:05.845Z,6.60
2022-11-13T06:01:52.906Z,6.43
2022-11-13T06:04:38.361Z,6.00
2022-11-13T06:07:24.108Z,7.13
2022-11-13T06:10:09.815Z,6.73
2022-11-13T06:12:55.819Z,6.70
2022-11-13T06:15:41.681Z,6.10
2022-11-13T06:18:29.240Z,6.97
2022-11-13T06:21:17.189Z,6.57
2022-11-13T06:24:02.949Z,6.63
2022-11-13T06:26:48.467Z,6.63
2022-11-13T06:29:34.032Z,7.50
2022-11-13T06:32:19.581Z,6.87
2022-11-13T06:35:07.043Z,6.20
2022-11-13T06:37:54.885Z,6.70
2022-11-13T06:40:40.686Z,6.60
2022-11-13T06:43:26.595Z,6.57
2022-11-13T06:46:13.537Z,6.90
2022-11-13T06:48:59.035Z,6.97
2022-11-13T06:51:45.903Z,6.33
2022-11-13T06:54:31.546Z,7.20
2022-11-13T06:57:17.127Z,6.87
2022-11-13T07:00:02.746Z,6.80
2022-11-13T07:02:49.092Z,6.87
2022-11-13T07:05:36.621Z,6.03
2022-11-13T07:08:24.003Z,7.13
2022-11-13T07:11:10.948Z,6.77
2022-11-13T07:13:56.704Z,6.57
2022-11-13T07:17:07.386Z,7.63
2022-11-13T07:19:48.095Z,7.43
2022-11-13T07:22:33.582Z,6.13
2022-11-13T07:25:20.583Z,7.60
2022-11-13T07:28:06.256Z,6.03
2022-11-13T07:30:51.800Z,6.13
2022-11-13T07:33:37.261Z,7.33
2022-11-13T07:36:22.636Z,6.03
2022-11-13T07:39:08.249Z,5.80
2022-11-13T07:41:55.291Z,5.90
2022-11-13T07:44:54.222Z,6.20
2022-11-13T07:47:40.437Z,6.50
2022-11-13T07:50:26.563Z,6.43
2022-11-13T07:53:12.199Z,5.93
2022-11-13T07:56:00.544Z,5.70
2022-11-13T07:58:47.700Z,5.50
2022-11-13T08:01:33.442Z,5.03
2022-11-13T08:04:19.136Z,5.43
2022-11-13T08:07:04.696Z,5.00
2022-11-13T08:09:50.307Z,5.63
2022-11-13T08:12:35.880Z,5.20
2022-11-13T08:15:22.812Z,5.47
2022-11-13T08:18:08.485Z,4.80
2022-11-13T08:20:54.122Z,5.80
2022-11-13T08:23:41.151Z,5.00
2022-11-13T08:26:26.751Z,6.43
2022-11-13T08:29:12.278Z,5.70
2022-11-13T08:31:59.466Z,5.03
2022-11-13T08:34:45.447Z,4.70
2022-11-13T08:37:31.288Z,4.63
2022-11-13T08:40:16.972Z,5.57
2022-11-13T08:43:03.264Z,6.17
2022-11-13T08:45:49.227Z,5.63
2022-11-13T08:48:36.170Z,6.00
2022-11-13T08:51:21.709Z,6.07
2022-11-13T08:54:07.420Z,5.67
2022-11-13T08:56:57.196Z,5.83
2022-11-13T08:59:44.360Z,5.13
2022-11-13T09:02:29.869Z,5.30
2022-11-13T09:05:16.765Z,4.77
2022-11-13T09:08:02.536Z,5.23
2022-11-13T09:10:48.259Z,5.40
2022-11-13T09:13:36.601Z,4.90
2022-11-13T09:16:25.842Z,5.00
2022-11-13T09:19:11.364Z,6.03
2022-11-13T09:21:58.629Z,4.53
2022-11-13T09:24:44.075Z,5.23
2022-11-13T09:27:29.708Z,5.07
2022-11-13T09:30:16.148Z,5.30
2022-11-13T09:33:02.312Z,4.90
2022-11-13T09:35:48.030Z,5.30
2022-11-13T09:38:35.125Z,5.33
2022-11-13T09:41:21.957Z,5.70
2022-11-13T09:44:17.918Z,5.07
2022-11-13T09:47:07.822Z,5.23
2022-11-13T09:49:55.348Z,4.93
2022-11-13T09:52:42.578Z,5.53
2022-11-13T09:55:33.030Z,4.87
2022-11-13T09:58:21.677Z,5.67
2022-11-13T10:01:11.004Z,4.83
2022-11-13T10:04:02.476Z,4.80
2022-11-13T10:07:01.134Z,4.90
2022-11-13T10:09:54.890Z,5.40
2022-11-13T10:12:42.636Z,5.00
2022-11-13T10:15:28.505Z,5.00
2022-11-13T10:18:16.082Z,4.83
2022-11-13T10:21:09.648Z,4.60
2022-11-13T10:23:56.453Z,4.60
2022-11-13T10:26:42.327Z,4.50
2022-11-13T10:29:29.869Z,4.10
2022-11-13T10:32:16.850Z,4.30
2022-11-13T10:35:12.094Z,4.70
2022-11-13T10:38:04.845Z,4.10
2022-11-13T10:41:03.975Z,4.50
2022-11-13T10:43:58.456Z,4.60
2022-11-13T10:46:45.281Z,4.87
2022-11-13T10:49:30.799Z,4.60
2022-11-13T10:52:18.495Z,4.83
2022-11-13T10:55:14.337Z,4.57
2022-11-13T10:58:01.228Z,3.77
2022-11-13T11:00:47.339Z,4.23
2022-11-13T11:03:34.813Z,3.77
2022-11-13T11:06:20.270Z,4.50
2022-11-13T11:09:06.526Z,4.23
2022-11-13T11:11:59.353Z,4.60
2022-11-13T11:15:03.052Z,4.63
2022-11-13T11:17:50.674Z,4.60
2022-11-13T11:20:41.088Z,4.30
2022-11-13T11:23:30.804Z,4.60
2022-11-13T11:26:17.147Z,4.93
2022-11-13T11:29:07.568Z,5.10
2022-11-13T11:31:56.137Z,4.47
2022-11-13T11:34:44.490Z,4.57
2022-11-13T11:37:35.970Z,3.33
2022-11-13T11:40:25.441Z,3.37
2022-11-13T11:43:16.633Z,3.00
2022-11-13T11:46:02.443Z,2.70
2022-11-13T11:48:48.050Z,3.10
2022-11-13T11:51:37.300Z,3.63
2022-11-13T11:54:30.475Z,3.60
2022-11-13T11:57:22.313Z,3.30
2022-11-13T12:00:12.198Z,3.63
2022-11-13T12:03:12.968Z,3.67
2022-11-13T12:06:05.223Z,3.30
2022-11-13T12:08:56.221Z,3.17
2022-11-13T12:11:48.516Z,2.83
2022-11-13T12:14:38.215Z,3.43
2022-11-13T12:17:31.196Z,3.40
2022-11-13T12:20:21.396Z,3.17
2022-11-13T12:23:15.232Z,2.70
2022-11-13T12:26:03.335Z,2.50
2022-11-13T12:28:51.381Z,3.07
2022-11-13T12:31:44.221Z,3.13
2022-11-13T12:34:32.077Z,2.70
2022-11-13T12:37:20.849Z,2.63
2022-11-13T12:40:07.755Z,2.87
2022-11-13T12:42:56.189Z,2.70
2022-11-13T12:45:50.207Z,2.73
2022-11-13T12:48:36.869Z,2.97
2022-11-13T12:51:22.339Z,3.20
2022-11-13T12:54:10.088Z,2.73
2022-11-13T12:57:05.792Z,2.40
2022-11-13T12:59:53.152Z,2.53
2022-11-13T13:02:53.267Z,2.33
2022-11-13T13:05:50.859Z,3.17
2022-11-13T13:08:46.441Z,2.20
2022-11-13T13:11:39.175Z,2.40
2022-11-13T13:14:33.645Z,2.97
2022-11-13T13:17:20.324Z,2.27
2022-11-13T13:20:27.968Z,2.87
2022-11-13T13:23:26.126Z,3.20
2022-11-13T13:26:16.851Z,2.23
2022-11-13T13:29:09.030Z,2.50
2022-11-13T13:31:56.226Z,2.70
2022-11-13T13:34:46.628Z,2.43
2022-11-13T13:37:35.920Z,2.70
2022-11-13T13:40:28.509Z,2.47
2022-11-13T13:43:28.709Z,1.97
2022-11-13T13:46:15.760Z,2.20
2022-11-13T13:49:04.069Z,2.27
2022-11-13T13:51:51.496Z,2.70
2022-11-13T13:54:37.490Z,2.33
2022-11-13T13:57:24.600Z,2.77
2022-11-13T14:00:12.117Z,2.87
2022-11-13T14:02:57.829Z,2.50
2022-11-13T14:05:43.432Z,2.27
2022-11-13T14:08:29.372Z,2.20
2022-11-13T14:11:20.115Z,1.83
2022-11-13T14:14:10.869Z,2.57
2022-11-13T14:16:57.511Z,2.20
2022-11-13T14:19:49.196Z,2.37
2022-11-13T14:22:35.090Z,2.20
2022-11-13T14:25:22.675Z,3.33
2022-11-13T14:28:13.743Z,2.37
2022-11-13T14:31:02.692Z,2.57
2022-11-13T14:33:49.968Z,2.33
2022-11-13T14:36:35.600Z,2.10
2022-11-13T14:39:23.440Z,2.17
2022-11-13T14:42:14.797Z,2.67
2022-11-13T14:45:06.740Z,2.90
2022-11-13T14:48:01.489Z,2.70
2022-11-13T14:50:50.026Z,2.70
2022-11-13T14:53:37.417Z,2.33
2022-11-13T14:56:31.441Z,2.30
2022-11-13T14:59:20.030Z,2.27
2022-11-13T15:02:06.056Z,2.60
2022-11-13T15:04:52.977Z,2.40
2022-11-13T15:07:41.489Z,2.20
2022-11-13T15:10:27.894Z,2.50
2022-11-13T15:13:13.852Z,2.50
2022-11-13T15:15:59.428Z,2.40
2022-11-13T15:18:47.327Z,2.90
2022-11-13T15:21:34.468Z,3.43
2022-11-13T15:24:20.241Z,2.80
2022-11-13T15:27:05.940Z,3.07
2022-11-13T15:29:51.861Z,3.03
2022-11-13T15:32:37.734Z,2.73
2022-11-13T15:35:23.551Z,2.90
2022-11-13T15:38:10.711Z,3.30
2022-11-13T15:40:56.424Z,3.40
2022-11-13T15:43:43.699Z,3.20
2022-11-13T15:46:29.498Z,3.77
2022-11-13T15:49:14.972Z,4.80
2022-11-13T15:52:00.606Z,4.23
2022-11-13T15:54:47.755Z,4.50
2022-11-13T15:57:33.637Z,3.70
2022-11-13T16:00:20.077Z,3.47
2022-11-13T16:03:05.655Z,3.50
2022-11-13T16:05:51.219Z,3.60
2022-11-13T16:08:36.764Z,4.23
2022-11-13T16:11:23.610Z,5.60
2022-11-13T16:14:09.203Z,8.10
2022-11-13T16:16:54.642Z,6.73
2022-11-13T16:19:41.443Z,7.57
2022-11-13T16:22:27.768Z,6.50
2022-11-13T16:25:14.047Z,5.40
2022-11-13T16:28:01.177Z,6.57
2022-11-13T16:30:47.140Z,5.20
2022-11-13T16:33:32.805Z,5.70
2022-11-13T16:36:19.906Z,5.10
2022-11-13T16:39:05.717Z,5.80
2022-11-13T16:41:51.429Z,5.87
2022-11-13T16:44:38.449Z,5.60
2022-11-13T16:47:25.886Z,4.83
2022-11-13T16:50:15.402Z,4.57
2022-11-13T16:53:01.345Z,5.20
2022-11-13T16:55:47.095Z,4.40
2022-11-13T16:58:32.554Z,4.30
2022-11-13T17:01:20.014Z,4.77
2022-11-13T17:04:05.973Z,4.00
2022-11-13T17:06:54.233Z,4.17
2022-11-13T17:09:43.039Z,5.20
2022-11-13T17:12:28.570Z,5.10
2022-11-13T17:15:14.227Z,5.07
2022-11-13T17:18:01.036Z,5.00
2022-11-13T17:20:50.207Z,4.80
2022-11-13T17:23:35.778Z,4.17
2022-11-13T17:26:21.403Z,5.27
2022-11-13T17:29:07.027Z,4.70
2022-11-13T17:31:52.534Z,4.93
2022-11-13T17:34:39.460Z,4.70
2022-11-13T17:37:25.520Z,5.20
2022-11-13T17:40:11.735Z,4.70
2022-11-13T17:42:57.640Z,4.57
2022-11-13T17:45:43.153Z,4.60
2022-11-13T17:48:31.312Z,4.30
2022-11-13T17:51:18.325Z,5.00
2022-11-13T17:54:03.965Z,6.47
2022-11-13T17:56:49.922Z,6.73
2022-11-13T17:59:35.684Z,15.37
2022-11-13T18:02:21.220Z,17.60
2022-11-13T18:05:07.346Z,23.03
2022-11-13T18:07:54.191Z,24.10
2022-11-13T18:10:40.056Z,28.50
2022-11-13T18:13:26.397Z,20.27
2022-11-13T18:16:13.308Z,17.17
2022-11-13T18:18:58.989Z,14.80
2022-11-13T18:21:44.815Z,17.07
2022-11-13T18:24:31.896Z,19.87
2022-11-13T18:27:17.835Z,15.83
2022-11-13T18:30:03.738Z,16.50
2022-11-13T18:32:50.678Z,18.23
2022-11-13T18:35:36.297Z,16.90
2022-11-13T18:38:21.830Z,18.00
2022-11-13T18:41:09.677Z,16.00
2022-11-13T18:43:55.214Z,17.10
2022-11-13T18:46:40.755Z,17.40
2022-11-13T18:49:26.341Z,17.27
2022-11-13T18:52:12.181Z,15.77
2022-11-13T18:54:57.927Z,15.60
2022-11-13T18:57:45.005Z,13.97
2022-11-13T19:00:30.562Z,13.43
2022-11-13T19:03:16.135Z,12.70
2022-11-13T19:06:01.786Z,14.50
2022-11-13T19:08:47.341Z,12.17
2022-11-13T19:11:33.559Z,13.13
2022-11-13T19:14:20.636Z,11.83
2022-11-13T19:17:06.142Z,15.47
2022-11-13T19:19:51.904Z,16.60
2022-11-13T19:22:37.625Z,14.90
2022-11-13T19:25:23.241Z,13.30
2022-11-13T19:28:08.645Z,11.70
2022-11-13T19:30:55.431Z,11.30
2022-11-13T19:33:41.322Z,12.00
2022-11-13T19:36:27.704Z,10.53
2022-11-13T19:39:13.490Z,11.47
2022-11-13T19:41:59.031Z,11.73
2022-11-13T19:44:44.660Z,11.23
2022-11-13T19:47:31.591Z,10.63
2022-11-13T19:50:17.567Z,10.80
2022-11-13T19:53:03.149Z,11.03
2022-11-13T19:55:54.295Z,10.60
2022-11-13T19:58:40.233Z,9.60
2022-11-13T20:01:27.081Z,9.77
2022-11-13T20:04:14.226Z,10.67
2022-11-13T20:06:59.950Z,10.20
2022-11-13T20:09:45.993Z,10.33
2022-11-13T20:12:31.701Z,10.20
2022-11-13T20:15:17.554Z,10.57
2022-11-13T20:18:03.234Z,10.70
2022-11-13T20:20:54.407Z,10.10
2022-11-13T20:23:41.057Z,12.20
2022-11-13T20:26:27.466Z,10.27
2022-11-13T20:29:13.360Z,10.20
2022-11-13T20:31:59.658Z,11.10
2022-11-13T20:34:45.478Z,11.43
2022-11-13T20:37:32.547Z,11.27
2022-11-13T20:40:18.502Z,10.20
2022-11-13T20:43:04.345Z,10.50
2022-11-13T20:45:50.101Z,10.70
2022-11-13T20:48:36.084Z,10.13
2022-11-13T20:51:22.560Z,11.03
2022-11-13T20:54:09.666Z,12.13
2022-11-13T20:56:55.457Z,12.63
2022-11-13T20:59:40.888Z,10.67
2022-11-13T21:02:26.484Z,11.47
2022-11-13T21:05:12.054Z,10.97
2022-11-13T21:07:57.784Z,11.20
2022-11-13T21:10:44.733Z,12.83
2022-11-13T21:13:30.279Z,12.30
2022-11-13T21:16:16.839Z,11.00
2022-11-13T21:19:02.677Z,10.80
2022-11-13T21:21:48.354Z,9.80
2022-11-13T21:24:33.943Z,10.50
2022-11-13T21:27:20.794Z,11.77
2022-11-13T21:30:06.935Z,13.13
2022-11-13T21:32:52.436Z,10.60
2022-11-13T21:35:37.876Z,10.47
2022-11-13T21:38:23.530Z,11.23
2022-11-13T21:41:10.309Z,10.67
2022-11-13T21:43:58.559Z,11.03
2022-11-13T21:46:43.995Z,11.33
2022-11-13T21:49:29.523Z,11.03
2022-11-13T21:52:15.091Z,10.10
2022-11-13T21:55:00.623Z,11.17
2022-11-13T21:57:46.059Z,10.80
2022-11-13T22:00:33.085Z,10.10
2022-11-13T22:03:18.830Z,11.30
2022-11-13T22:06:17.979Z,10.80
2022-11-13T22:09:04.940Z,10.40
2022-11-13T22:11:50.859Z,11.30
2022-11-13T22:14:36.437Z,12.17
2022-11-13T22:17:23.494Z,11.73
2022-11-13T22:20:09.569Z,12.43
2022-11-13T22:22:55.043Z,14.20
2022-11-13T22:25:40.590Z,12.93
2022-11-13T22:28:26.519Z,11.67
2022-11-13T22:31:14.196Z,12.63
2022-11-13T22:34:01.577Z,13.40
2022-11-13T22:36:47.150Z,12.63
2022-11-13T22:39:32.857Z,11.33
2022-11-13T22:42:18.438Z,13.50
2022-11-13T22:45:10.815Z,11.80
2022-11-13T22:48:05.753Z,12.60
2022-11-13T22:50:52.758Z,12.43
2022-11-13T22:53:38.472Z,12.13
2022-11-13T22:56:24.904Z,11.60
2022-11-13T22:59:11.397Z,11.73
2022-11-13T23:01:57.112Z,12.60
2022-11-13T23:04:42.722Z,12.40
2022-11-13T23:07:29.905Z,11.40
2022-11-13T23:10:15.532Z,12.63
2022-11-13T23:13:01.028Z,12.47
2022-11-13T23:15:46.640Z,13.73
2022-11-13T23:18:32.946Z,13.07
2022-11-13T23:21:19.136Z,12.30
2022-11-13T23:24:06.887Z,12.17
2022-11-13T23:26:52.400Z,12.20
2022-11-13T23:29:37.933Z,12.30
2022-11-13T23:32:23.585Z,12.50
2022-11-13T23:35:09.563Z,12.20
2022-11-13T23:37:55.109Z,12.47
2022-11-13T23:40:42.037Z,11.47
2022-11-13T23:43:53.859Z,12.33
2022-11-13T23:46:33.494Z,12.70
2022-11-13T23:49:19.168Z,12.37
2022-11-13T23:52:04.896Z,12.30
2022-11-13T23:54:50.700Z,12.60
2022-11-13T23:57:37.667Z,13.03
